Time;durP1;ratioP1;P1;durP2;ratioP2;P2;SDS_P1;SDS_P2;PMS_P1;PMS_P2;Temp;Humidity;BMP_temperature;BMP_pressure;BME280_temperature;BME280_humidity;BME280_pressure;Samples;Min_cycle;Max_cycle;Signal;HPM_P1;HPM_P2
2021/01/07 00:02:10;;;;;;;12.48;9.00;;;2.70;99.90;;;;;;4973334;28;20215;-88
2021/01/07 00:04:38;;;;;;;13.75;8.45;;;2.10;99.90;;;;;;4976483;28;20187;-88
2021/01/07 00:07:06;;;;;;;20.45;9.57;;;2.60;99.90;;;;;;4976435;28;20262;-87
2021/01/07 00:09:32;;;;;;;13.00;8.93;;;2.50;99.90;;;;;;4975812;28;20262;-88
2021/01/07 00:12:04;;;;;;;15.77;8.57;;;2.70;99.90;;;;;;4975681;28;20858;-87
2021/01/07 00:14:32;;;;;;;17.10;9.65;;;2.70;99.90;;;;;;4960748;28;20260;-89
2021/01/07 00:16:58;;;;;;;14.57;8.87;;;2.50;99.90;;;;;;4976597;28;20195;-88
2021/01/07 00:19:24;;;;;;;16.13;9.43;;;2.50;99.90;;;;;;4977079;28;20430;-88
2021/01/07 00:21:54;;;;;;;17.52;9.10;;;2.50;99.90;;;;;;4976432;28;20966;-87
2021/01/07 00:24:21;;;;;;;14.90;8.43;;;2.60;99.90;;;;;;4976099;28;20191;-86
2021/01/07 00:26:49;;;;;;;11.77;8.60;;;2.70;99.90;;;;;;4975930;28;20616;-88
2021/01/07 00:29:18;;;;;;;17.88;10.15;;;2.40;99.90;;;;;;4975817;28;20183;-88
2021/01/07 00:31:44;;;;;;;16.13;9.63;;;2.70;99.90;;;;;;4975555;28;20652;-87
2021/01/07 00:34:10;;;;;;;17.27;10.60;;;2.70;99.90;;;;;;4975940;28;20441;-88
2021/01/07 00:36:35;;;;;;;16.70;10.60;;;2.60;99.90;;;;;;4976081;28;20422;-88
2021/01/07 00:39:02;;;;;;;18.10;9.43;;;2.20;99.90;;;;;;4975821;28;20473;-89
2021/01/07 00:41:30;;;;;;;22.05;10.73;;;2.60;99.90;;;;;;4975166;28;20449;-88
2021/01/07 00:44:01;;;;;;;16.80;9.63;;;2.50;99.90;;;;;;4976239;28;20187;-88
2021/01/07 00:46:26;;;;;;;14.80;9.43;;;2.50;99.90;;;;;;4976174;28;20345;-87
2021/01/07 00:48:52;;;;;;;16.83;9.30;;;2.60;99.90;;;;;;4976388;28;20187;-88
2021/01/07 00:51:32;;;;;;;19.75;10.57;;;2.70;99.90;;;;;;4958952;28;20419;-88
2021/01/07 00:53:59;;;;;;;14.65;9.82;;;2.60;99.90;;;;;;4972005;28;20176;-88
2021/01/07 00:56:36;;;;;;;18.80;11.52;;;2.30;99.90;;;;;;4968115;28;20195;-88
2021/01/07 00:59:05;;;;;;;15.15;10.05;;;2.40;99.90;;;;;;4994961;28;20230;-87
2021/01/07 01:01:47;;;;;;;22.58;10.68;;;2.60;99.90;;;;;;4979851;28;20274;-87
2021/01/07 01:04:14;;;;;;;17.83;10.10;;;2.60;99.90;;;;;;4976905;28;20566;-87
2021/01/07 01:06:41;;;;;;;15.60;9.82;;;2.50;99.90;;;;;;4978934;28;20215;-88
2021/01/07 01:09:16;;;;;;;22.02;10.70;;;2.70;99.90;;;;;;4979665;28;20237;-87
2021/01/07 01:11:45;;;;;;;19.08;10.05;;;2.70;99.90;;;;;;4979445;28;20194;-87
2021/01/07 01:14:18;;;;;;;14.40;9.48;;;2.70;99.90;;;;;;4978117;28;20179;-87
2021/01/07 01:16:48;;;;;;;17.65;9.25;;;2.60;99.90;;;;;;4979627;28;20660;-87
2021/01/07 01:19:15;;;;;;;19.45;10.57;;;2.50;99.90;;;;;;4979193;28;20583;-87
2021/01/07 01:21:44;;;;;;;13.15;9.00;;;2.70;99.90;;;;;;4979283;28;20184;-88
2021/01/07 01:24:12;;;;;;;16.67;10.27;;;2.70;99.90;;;;;;4970797;28;20263;-87
2021/01/07 01:26:38;;;;;;;15.32;9.93;;;2.70;99.90;;;;;;4962347;28;20632;-88
2021/01/07 01:29:04;;;;;;;15.33;10.30;;;2.60;99.90;;;;;;4973449;28;20249;-88
2021/01/07 01:31:40;;;;;;;16.95;9.85;;;2.80;99.90;;;;;;4978906;28;20458;-86
2021/01/07 01:34:07;;;;;;;18.50;10.43;;;2.60;99.90;;;;;;4978674;28;20210;-88
2021/01/07 01:36:33;;;;;;;15.55;9.93;;;2.70;99.90;;;;;;4979125;28;20183;-89
2021/01/07 01:39:01;;;;;;;15.17;9.93;;;2.70;99.90;;;;;;4978658;28;20191;-89
2021/01/07 01:41:27;;;;;;;19.95;10.40;;;2.70;99.90;;;;;;4978645;28;20770;-89
2021/01/07 01:43:55;;;;;;;14.53;9.60;;;2.80;99.90;;;;;;4959609;28;20219;-89
2021/01/07 01:46:23;;;;;;;17.42;10.57;;;2.80;99.90;;;;;;4959768;28;20423;-88
2021/01/07 01:48:49;;;;;;;16.40;9.70;;;2.60;99.90;;;;;;4970510;28;20253;-88
2021/01/07 01:51:15;;;;;;;16.05;8.50;;;2.80;99.90;;;;;;4978790;28;20194;-88
2021/01/07 01:53:45;;;;;;;17.75;10.13;;;2.20;99.90;;;;;;4978661;28;20226;-88
2021/01/07 01:56:15;;;;;;;22.00;10.52;;;2.10;99.90;;;;;;4985235;28;20190;-88
2021/01/07 01:58:41;;;;;;;14.52;10.18;;;2.70;99.90;;;;;;4998125;28;20222;-89
2021/01/07 02:01:09;;;;;;;17.45;10.13;;;2.90;99.90;;;;;;4991541;28;20202;-88
2021/01/07 02:03:42;;;;;;;14.45;9.38;;;2.70;99.90;;;;;;4978496;28;20290;-89
2021/01/07 02:06:13;;;;;;;18.38;10.30;;;2.70;99.90;;;;;;4977814;28;20188;-88
2021/01/07 02:08:41;;;;;;;17.00;10.02;;;3.10;99.90;;;;;;4978398;28;20191;-88
2021/01/07 02:11:14;;;;;;;16.60;10.45;;;2.60;99.90;;;;;;4975259;28;20179;-88
2021/01/07 02:13:47;;;;;;;20.77;9.75;;;2.70;99.90;;;;;;4965663;28;20190;-89
2021/01/07 02:16:22;;;;;;;17.85;10.50;;;2.70;99.90;;;;;;4975334;28;20306;-89
2021/01/07 02:18:51;;;;;;;19.38;9.73;;;2.70;99.90;;;;;;4973707;28;20620;-87
2021/01/07 02:21:17;;;;;;;18.85;11.30;;;2.80;99.90;;;;;;4978451;28;20191;-88
2021/01/07 02:23:54;;;;;;;17.67;10.20;;;2.90;99.90;;;;;;4993628;28;20199;-88
2021/01/07 02:26:22;;;;;;;17.98;10.80;;;2.50;99.90;;;;;;4978431;28;20426;-88
2021/01/07 02:28:49;;;;;;;21.58;11.90;;;2.50;99.90;;;;;;4978345;28;20183;-88
2021/01/07 02:31:18;;;;;;;20.50;10.93;;;2.80;99.90;;;;;;4978437;28;20174;-88
2021/01/07 02:33:46;;;;;;;18.77;11.98;;;3.00;99.90;;;;;;4979718;28;20245;-88
2021/01/07 02:36:17;;;;;;;25.25;11.70;;;2.80;99.90;;;;;;4979423;28;20238;-88
2021/01/07 02:38:43;;;;;;;18.63;12.27;;;2.90;99.90;;;;;;4964758;28;20191;-88
2021/01/07 02:41:14;;;;;;;17.98;11.35;;;2.80;99.90;;;;;;4977854;28;20245;-89
2021/01/07 02:43:42;;;;;;;21.38;13.68;;;2.90;99.90;;;;;;4977293;28;20302;-89
2021/01/07 02:46:11;;;;;;;22.17;14.10;;;2.80;99.90;;;;;;4977788;28;20282;-89
2021/01/07 02:48:37;;;;;;;19.50;12.47;;;2.90;99.90;;;;;;4977853;28;20210;-88
2021/01/07 02:51:05;;;;;;;22.20;13.45;;;2.90;99.90;;;;;;4977423;28;20469;-88
2021/01/07 02:53:33;;;;;;;21.50;14.20;;;2.80;99.90;;;;;;4960770;28;20191;-89
2021/01/07 02:56:01;;;;;;;22.80;12.88;;;2.80;99.90;;;;;;4963856;28;20513;-89
2021/01/07 02:58:28;;;;;;;22.45;13.60;;;2.90;99.90;;;;;;4975307;28;20223;-88
2021/01/07 03:00:59;;;;;;;22.17;13.60;;;2.90;99.90;;;;;;4965915;28;20611;-80
2021/01/07 03:03:29;;;;;;;21.38;13.18;;;2.90;99.90;;;;;;4972200;28;20561;-80
2021/01/07 03:05:58;;;;;;;20.88;13.10;;;2.80;99.90;;;;;;4969852;28;20282;-80
2021/01/07 03:08:24;;;;;;;22.03;13.67;;;2.90;99.90;;;;;;4956936;28;20712;-81
2021/01/07 03:10:54;;;;;;;22.60;13.38;;;2.80;99.90;;;;;;4960156;28;20493;-81
2021/01/07 03:13:27;;;;;;;26.42;15.85;;;2.90;99.90;;;;;;4971248;28;20187;-80
2021/01/07 03:15:53;;;;;;;25.45;15.23;;;2.70;99.90;;;;;;4961961;28;20179;-80
2021/01/07 03:18:27;;;;;;;26.35;15.25;;;2.70;99.90;;;;;;4956703;28;20521;-80
2021/01/07 03:20:58;;;;;;;23.33;14.85;;;3.00;99.90;;;;;;4955624;28;20672;-80
2021/01/07 03:23:28;;;;;;;25.50;16.08;;;2.90;99.90;;;;;;4974001;28;20250;-80
2021/01/07 03:26:01;;;;;;;22.52;13.30;;;2.80;99.90;;;;;;4974621;28;20175;-80
2021/01/07 03:28:31;;;;;;;24.50;13.95;;;2.90;99.90;;;;;;4961133;28;20172;-81
2021/01/07 03:30:59;;;;;;;27.20;15.25;;;2.70;99.90;;;;;;4962025;28;20210;-80
2021/01/07 03:33:30;;;;;;;21.70;14.45;;;2.70;99.90;;;;;;4954144;28;20354;-80
2021/01/07 03:36:00;;;;;;;25.77;15.70;;;2.70;99.90;;;;;;4964391;28;20190;-81
2021/01/07 03:38:30;;;;;;;25.25;15.38;;;2.80;99.90;;;;;;4974628;28;20277;-80
2021/01/07 03:40:58;;;;;;;28.57;17.30;;;2.90;99.90;;;;;;4958424;28;20286;-80
2021/01/07 03:43:24;;;;;;;22.48;14.15;;;2.70;99.90;;;;;;4971765;28;20517;-81
2021/01/07 03:45:55;;;;;;;25.88;15.75;;;2.90;99.90;;;;;;4959172;28;20214;-80
2021/01/07 03:48:23;;;;;;;25.85;15.80;;;2.70;99.90;;;;;;4968220;28;20187;-80
2021/01/07 03:50:54;;;;;;;25.55;15.38;;;2.70;99.90;;;;;;4975018;28;20210;-81
2021/01/07 03:53:22;;;;;;;28.08;15.32;;;3.00;99.90;;;;;;4969619;28;20184;-80
2021/01/07 03:55:51;;;;;;;22.02;14.57;;;2.90;99.90;;;;;;4974184;28;20208;-80
2021/01/07 03:58:19;;;;;;;27.83;15.50;;;2.90;99.90;;;;;;4972781;28;20235;-80
2021/01/07 04:00:50;;;;;;;26.10;16.58;;;2.90;99.90;;;;;;4973704;28;20541;-80
2021/01/07 04:03:18;;;;;;;22.83;14.30;;;2.90;99.90;;;;;;4967984;28;20219;-80
2021/01/07 04:05:49;;;;;;;27.17;15.80;;;2.60;99.90;;;;;;4954833;29;20184;-81
2021/01/07 04:08:22;;;;;;;24.63;15.15;;;2.90;99.90;;;;;;4963826;28;20183;-81
2021/01/07 04:10:48;;;;;;;28.58;16.10;;;2.80;99.90;;;;;;4975043;28;20172;-80
2021/01/07 04:13:19;;;;;;;25.35;14.73;;;2.70;99.90;;;;;;4957862;28;20187;-80
2021/01/07 04:15:47;;;;;;;27.88;15.18;;;2.90;99.90;;;;;;4974573;28;20183;-80
2021/01/07 04:18:18;;;;;;;23.33;15.00;;;2.90;99.90;;;;;;4977969;28;20191;-81
2021/01/07 04:20:53;;;;;;;28.33;15.65;;;2.80;99.90;;;;;;4972933;28;20206;-80
2021/01/07 04:23:19;;;;;;;28.20;17.13;;;2.70;99.90;;;;;;4970680;28;20195;-80
2021/01/07 04:25:52;;;;;;;23.57;16.60;;;2.80;99.90;;;;;;4974424;28;20194;-80
2021/01/07 04:28:22;;;;;;;20.65;14.40;;;2.90;99.90;;;;;;4957525;28;20434;-80
2021/01/07 04:30:48;;;;;;;30.27;16.10;;;2.90;99.90;;;;;;4974333;28;20195;-80
2021/01/07 04:33:17;;;;;;;24.50;15.60;;;2.80;99.90;;;;;;4976731;28;20245;-80
2021/01/07 04:35:43;;;;;;;25.65;15.70;;;3.30;99.90;;;;;;4978276;28;20206;-80
2021/01/07 04:38:14;;;;;;;27.90;14.77;;;3.00;99.90;;;;;;4960272;28;20191;-81
2021/01/07 04:40:49;;;;;;;26.15;15.95;;;3.00;99.90;;;;;;4975615;28;20208;-80
2021/01/07 04:43:15;;;;;;;26.52;15.27;;;3.10;99.90;;;;;;4993563;28;20238;-80
2021/01/07 04:45:50;;;;;;;27.48;17.00;;;2.90;99.90;;;;;;4966304;28;20596;-80
2021/01/07 04:48:24;;;;;;;24.10;15.32;;;3.10;99.90;;;;;;4977010;28;20198;-80
2021/01/07 04:50:57;;;;;;;31.25;17.60;;;2.80;99.90;;;;;;4978392;28;20214;-80
2021/01/07 04:53:23;;;;;;;25.45;16.65;;;2.90;99.90;;;;;;4971666;28;20200;-80
2021/01/07 04:55:56;;;;;;;31.05;17.80;;;2.90;99.90;;;;;;4951668;29;20215;-80
2021/01/07 04:58:24;;;;;;;29.35;17.40;;;3.00;99.90;;;;;;4970408;28;20691;-80
2021/01/07 05:00:50;;;;;;;26.70;15.83;;;2.90;99.90;;;;;;4960801;28;20191;-81
2021/01/07 05:03:22;;;;;;;25.50;15.52;;;3.20;99.90;;;;;;4971807;28;20540;-80
2021/01/07 05:05:53;;;;;;;28.80;16.20;;;2.90;99.90;;;;;;4977977;28;20234;-80
2021/01/07 05:08:23;;;;;;;30.25;16.58;;;3.00;99.90;;;;;;4969783;28;20587;-80
2021/01/07 05:10:55;;;;;;;26.02;15.55;;;2.90;99.90;;;;;;4960941;28;20215;-81
2021/01/07 05:13:26;;;;;;;24.95;16.45;;;3.10;99.90;;;;;;4967996;28;20273;-80
2021/01/07 05:15:59;;;;;;;32.60;16.65;;;2.90;99.90;;;;;;4978073;28;20183;-80
2021/01/07 05:18:27;;;;;;;24.33;15.82;;;3.00;99.90;;;;;;4976599;28;20198;-80
2021/01/07 05:20:56;;;;;;;24.67;16.77;;;3.00;99.90;;;;;;4976073;28;20206;-80
2021/01/07 05:23:24;;;;;;;25.13;16.15;;;3.00;99.90;;;;;;4961511;28;20250;-81
2021/01/07 05:25:55;;;;;;;24.80;15.93;;;2.80;99.90;;;;;;4969155;28;20214;-80
2021/01/07 05:28:26;;;;;;;26.73;15.90;;;3.00;99.90;;;;;;4953636;28;20422;-80
2021/01/07 05:30:54;;;;;;;29.33;17.05;;;2.80;99.90;;;;;;4976658;28;20237;-80
2021/01/07 05:33:25;;;;;;;29.33;16.77;;;2.70;99.90;;;;;;4980433;28;20286;-80
2021/01/07 05:35:54;;;;;;;24.73;17.48;;;3.00;99.90;;;;;;4980642;28;20214;-80
2021/01/07 05:38:20;;;;;;;28.48;18.02;;;2.90;99.90;;;;;;4972287;28;20196;-80
2021/01/07 05:40:51;;;;;;;33.00;18.90;;;2.90;99.90;;;;;;4976049;28;20191;-80
2021/01/07 05:43:17;;;;;;;29.52;17.45;;;2.90;99.90;;;;;;4975181;28;20238;-80
2021/01/07 05:45:46;;;;;;;33.47;17.77;;;3.00;99.90;;;;;;4975693;28;20660;-80
2021/01/07 05:48:16;;;;;;;28.77;17.80;;;2.90;99.90;;;;;;4975027;28;20500;-80
2021/01/07 05:50:45;;;;;;;34.55;19.05;;;3.00;99.90;;;;;;4978440;28;20363;-80
2021/01/07 05:53:14;;;;;;;25.95;17.40;;;2.90;99.90;;;;;;4974869;28;20194;-80
2021/01/07 05:55:42;;;;;;;34.30;19.23;;;3.00;99.90;;;;;;4956990;29;20204;-80
2021/01/07 05:58:18;;;;;;;28.75;18.15;;;3.00;99.90;;;;;;4986997;28;20231;-80
2021/01/07 06:00:46;;;;;;;31.85;18.40;;;2.80;99.90;;;;;;4966447;28;20197;-81
2021/01/07 06:03:19;;;;;;;32.67;18.40;;;3.00;99.90;;;;;;4976794;28;20214;-81
2021/01/07 06:05:46;;;;;;;32.03;18.20;;;2.80;99.90;;;;;;4971728;28;20206;-80
2021/01/07 06:08:19;;;;;;;35.88;19.63;;;3.10;99.90;;;;;;4977227;28;20316;-81
2021/01/07 06:10:50;;;;;;;32.13;19.02;;;3.00;99.90;;;;;;4966990;28;20233;-80
2021/01/07 06:13:16;;;;;;;36.05;19.10;;;3.10;99.90;;;;;;4966994;28;20556;-80
2021/01/07 06:15:48;;;;;;;31.58;18.83;;;3.10;99.90;;;;;;4964621;28;20275;-81
2021/01/07 06:18:17;;;;;;;34.20;20.90;;;3.10;99.90;;;;;;4965902;28;20194;-80
2021/01/07 06:21:02;;;;;;;29.55;18.23;;;3.00;99.90;;;;;;4973420;28;20191;-80
2021/01/07 06:23:38;;;;;;;40.00;22.08;;;3.00;99.90;;;;;;4957256;28;20208;-80
2021/01/07 06:26:25;;;;;;;42.80;21.77;;;3.00;99.90;;;;;;4988741;28;20249;-80
2021/01/07 06:28:58;;;;;;;49.55;19.95;;;3.10;99.90;;;;;;4975374;28;20266;-81
2021/01/07 06:31:34;;;;;;;33.25;19.08;;;3.00;99.90;;;;;;4974436;28;20588;-80
2021/01/07 06:34:06;;;;;;;31.45;17.35;;;3.20;99.90;;;;;;4974917;28;20390;-80
2021/01/07 06:36:45;;;;;;;34.80;18.50;;;2.90;99.90;;;;;;4965047;28;20179;-81
2021/01/07 06:39:13;;;;;;;31.83;17.25;;;3.00;99.90;;;;;;4975861;28;20198;-80
2021/01/07 06:41:50;;;;;;;31.90;18.37;;;2.90;99.90;;;;;;4969749;28;20697;-80
2021/01/07 06:44:23;;;;;;;31.23;17.42;;;2.90;99.90;;;;;;4961488;28;20426;-80
2021/01/07 06:46:49;;;;;;;33.30;17.63;;;3.00;99.90;;;;;;4974299;28;20199;-80
2021/01/07 06:49:30;;;;;;;30.27;18.25;;;2.90;99.90;;;;;;4974547;28;20189;-80
2021/01/07 06:52:05;;;;;;;36.25;18.23;;;2.90;99.90;;;;;;4972870;28;20551;-80
2021/01/07 06:54:39;;;;;;;33.80;16.70;;;3.10;99.90;;;;;;4972344;28;20207;-80
2021/01/07 06:57:13;;;;;;;39.22;19.27;;;3.00;99.90;;;;;;4955686;28;20188;-79
2021/01/07 06:59:56;;;;;;;34.15;17.35;;;2.90;99.90;;;;;;4974675;28;20249;-80
2021/01/07 07:02:25;;;;;;;38.08;16.13;;;2.70;99.90;;;;;;4960712;28;20208;-81
2021/01/07 07:05:04;;;;;;;33.67;16.77;;;3.10;99.90;;;;;;4974455;28;20632;-80
2021/01/07 07:07:42;;;;;;;31.60;17.38;;;3.10;99.90;;;;;;4975126;28;20202;-80
2021/01/07 07:10:19;;;;;;;30.75;18.30;;;2.80;99.90;;;;;;4973119;28;20171;-81
2021/01/07 07:12:51;;;;;;;29.70;16.90;;;3.00;99.90;;;;;;4967533;28;20183;-81
2021/01/07 07:15:24;;;;;;;32.78;16.38;;;3.00;99.90;;;;;;4975124;28;20187;-81
2021/01/07 07:17:58;;;;;;;30.95;16.83;;;2.70;99.90;;;;;;4975374;28;20187;-81
2021/01/07 07:20:27;;;;;;;25.48;14.00;;;3.00;99.90;;;;;;4973982;28;20179;-81
2021/01/07 07:23:18;;;;;;;27.73;14.95;;;3.00;99.90;;;;;;4959128;28;20727;-81
2021/01/07 07:25:52;;;;;;;22.27;12.57;;;3.00;99.90;;;;;;4970260;28;20207;-81
2021/01/07 07:28:24;;;;;;;22.67;12.05;;;2.90;99.90;;;;;;4974340;28;20219;-81
2021/01/07 07:30:55;;;;;;;21.15;12.15;;;2.90;99.90;;;;;;4971126;28;20172;-81
2021/01/07 07:33:38;;;;;;;22.75;12.68;;;3.00;99.90;;;;;;4973014;28;20520;-81
2021/01/07 07:36:10;;;;;;;19.85;12.00;;;3.00;99.90;;;;;;4971197;28;20697;-81
2021/01/07 07:38:41;;;;;;;21.52;12.15;;;3.00;99.90;;;;;;4975189;28;20186;-81
2021/01/07 07:41:12;;;;;;;19.63;10.50;;;3.10;99.90;;;;;;4974566;28;20198;-82
2021/01/07 07:43:41;;;;;;;21.13;12.45;;;3.00;99.90;;;;;;4973955;28;20285;-81
2021/01/07 07:46:07;;;;;;;25.80;12.77;;;3.00;99.90;;;;;;4974149;28;20191;-81
2021/01/07 07:48:41;;;;;;;23.10;13.05;;;2.90;99.90;;;;;;4973148;28;21027;-81
2021/01/07 07:51:11;;;;;;;21.77;12.00;;;3.20;99.90;;;;;;4974588;28;20207;-81
2021/01/07 07:53:38;;;;;;;20.92;12.18;;;3.00;99.90;;;;;;4974964;28;20179;-82
2021/01/07 07:56:23;;;;;;;22.83;13.50;;;3.10;99.90;;;;;;4974814;28;20286;-81
2021/01/07 07:58:59;;;;;;;22.42;13.23;;;3.00;99.90;;;;;;4968076;28;20612;-81
2021/01/07 08:01:34;;;;;;;22.23;13.30;;;3.20;99.90;;;;;;4972605;28;20186;-81
2021/01/07 08:04:03;;;;;;;24.60;11.77;;;3.10;99.90;;;;;;4957490;28;20211;-81
2021/01/07 08:06:36;;;;;;;19.92;12.88;;;3.00;99.90;;;;;;4972851;28;20206;-81
2021/01/07 08:09:12;;;;;;;21.00;12.50;;;3.00;99.90;;;;;;4958688;28;20569;-82
2021/01/07 08:11:50;;;;;;;28.17;15.02;;;3.10;99.90;;;;;;4953285;29;20628;-82
2021/01/07 08:14:24;;;;;;;22.05;11.95;;;2.80;99.90;;;;;;4971488;28;20190;-81
2021/01/07 08:16:57;;;;;;;25.92;14.32;;;3.00;99.90;;;;;;4969924;28;20706;-81
2021/01/07 08:19:34;;;;;;;28.00;14.45;;;2.80;99.90;;;;;;4968803;28;20195;-82
2021/01/07 08:22:07;;;;;;;28.40;15.15;;;2.90;99.90;;;;;;4969805;28;20187;-82
2021/01/07 08:24:33;;;;;;;24.13;14.60;;;2.90;99.90;;;;;;4974343;28;20195;-82
2021/01/07 08:27:08;;;;;;;27.40;16.63;;;2.70;99.90;;;;;;4973875;28;20506;-82
2021/01/07 08:29:43;;;;;;;26.58;15.25;;;2.70;99.90;;;;;;4971497;28;20230;-82
2021/01/07 08:32:19;;;;;;;23.02;14.23;;;2.60;99.90;;;;;;4973221;28;20186;-82
2021/01/07 08:34:46;;;;;;;24.42;14.43;;;2.80;99.90;;;;;;4957600;28;20203;-82
2021/01/07 08:37:21;;;;;;;24.17;15.43;;;2.70;99.90;;;;;;4989556;28;20183;-82
2021/01/07 08:39:48;;;;;;;25.38;14.60;;;2.40;99.90;;;;;;4968849;28;20885;-81
2021/01/07 08:42:16;;;;;;;27.95;15.35;;;2.80;99.90;;;;;;4970453;28;20214;-82
2021/01/07 08:44:47;;;;;;;28.05;15.88;;;2.70;99.90;;;;;;4959225;28;20239;-81
2021/01/07 08:47:39;;;;;;;27.70;16.73;;;2.80;99.90;;;;;;4968529;28;20191;-81
2021/01/07 08:50:08;;;;;;;42.13;18.83;;;2.70;99.90;;;;;;4975237;28;20262;-82
2021/01/07 08:52:58;;;;;;;23.17;15.02;;;2.90;99.90;;;;;;4968257;28;20199;-82
2021/01/07 08:55:47;;;;;;;23.02;15.25;;;3.00;99.90;;;;;;4967847;28;20298;-81
2021/01/07 08:58:26;;;;;;;30.23;17.60;;;2.80;99.90;;;;;;4965681;28;20238;-81
2021/01/07 09:00:55;;;;;;;27.60;16.48;;;2.70;99.90;;;;;;4957233;28;20191;-81
2021/01/07 09:03:38;;;;;;;29.55;15.52;;;3.10;99.90;;;;;;4974156;28;20211;-81
2021/01/07 09:06:11;;;;;;;27.92;17.00;;;2.90;99.90;;;;;;4989028;28;20648;-82
2021/01/07 09:08:44;;;;;;;27.02;17.10;;;3.00;99.90;;;;;;4947323;28;20202;-82
2021/01/07 09:11:13;;;;;;;30.30;16.63;;;2.80;99.90;;;;;;4972944;28;20172;-82
2021/01/07 09:13:43;;;;;;;27.00;16.20;;;3.00;99.90;;;;;;4972866;28;20195;-81
2021/01/07 09:16:19;;;;;;;27.73;16.05;;;3.00;99.90;;;;;;4973009;28;20253;-81
2021/01/07 09:18:49;;;;;;;26.30;15.32;;;2.90;99.90;;;;;;4975856;28;20604;-81
2021/01/07 09:21:18;;;;;;;25.52;15.63;;;3.00;99.90;;;;;;4975993;28;20281;-81
2021/01/07 09:23:50;;;;;;;23.95;14.70;;;3.20;99.90;;;;;;4976399;28;20683;-82
2021/01/07 09:26:31;;;;;;;24.25;15.23;;;3.10;99.90;;;;;;4960518;28;20187;-82
2021/01/07 09:29:01;;;;;;;24.02;14.80;;;3.10;99.90;;;;;;4975831;28;20338;-81
2021/01/07 09:31:38;;;;;;;24.10;14.20;;;3.00;99.90;;;;;;4958294;28;20259;-82
2021/01/07 09:34:06;;;;;;;21.60;14.32;;;3.00;99.90;;;;;;4969617;28;20205;-82
2021/01/07 09:36:36;;;;;;;22.50;15.55;;;3.00;99.90;;;;;;4960505;28;20183;-81
2021/01/07 09:39:02;;;;;;;24.70;14.75;;;3.10;99.90;;;;;;4968308;28;20367;-82
2021/01/07 09:41:30;;;;;;;24.13;13.77;;;2.90;99.90;;;;;;4969493;28;20179;-81
2021/01/07 09:43:58;;;;;;;23.85;14.57;;;3.00;99.90;;;;;;4961161;28;20311;-82
2021/01/07 09:46:27;;;;;;;24.02;13.98;;;2.90;99.90;;;;;;4962632;28;20176;-82
2021/01/07 09:48:55;;;;;;;25.13;15.43;;;2.80;99.90;;;;;;4966959;28;20681;-82
2021/01/07 09:51:23;;;;;;;25.38;13.40;;;3.00;99.90;;;;;;4959258;28;20470;-82
2021/01/07 09:53:54;;;;;;;23.73;14.20;;;3.00;99.90;;;;;;4959326;28;20188;-82
2021/01/07 09:56:20;;;;;;;21.92;14.75;;;2.90;99.90;;;;;;4967956;28;20656;-82
2021/01/07 09:58:48;;;;;;;23.48;14.27;;;3.20;99.90;;;;;;4943554;28;20692;-82
2021/01/07 10:01:20;;;;;;;24.33;13.48;;;3.00;99.90;;;;;;4967270;28;20222;-82
2021/01/07 10:03:49;;;;;;;19.70;13.15;;;3.10;99.90;;;;;;4989452;28;20618;-82
2021/01/07 10:06:17;;;;;;;19.60;13.05;;;3.30;99.90;;;;;;4979285;28;20271;-82
2021/01/07 10:08:45;;;;;;;23.33;14.15;;;3.10;99.90;;;;;;4957025;28;20180;-82
2021/01/07 10:11:14;;;;;;;19.47;12.13;;;3.20;99.90;;;;;;4942145;28;20631;-81
2021/01/07 10:13:41;;;;;;;20.55;12.85;;;3.10;99.90;;;;;;4945145;29;20440;-81
2021/01/07 10:16:15;;;;;;;25.23;13.50;;;3.10;99.90;;;;;;4963296;28;20636;-81
2021/01/07 10:18:45;;;;;;;21.95;13.98;;;3.10;99.90;;;;;;4974089;28;20191;-81
2021/01/07 10:21:22;;;;;;;19.80;11.93;;;3.00;99.90;;;;;;4972442;28;20613;-81
2021/01/07 10:23:52;;;;;;;24.52;14.00;;;3.10;99.90;;;;;;4958630;28;20301;-81
2021/01/07 10:26:19;;;;;;;19.75;11.95;;;3.20;99.90;;;;;;4976097;28;20246;-81
2021/01/07 10:28:51;;;;;;;18.45;11.25;;;3.20;99.90;;;;;;4975284;28;20187;-81
2021/01/07 10:31:25;;;;;;;17.58;11.55;;;3.30;99.90;;;;;;4975191;28;20180;-81
2021/01/07 10:33:55;;;;;;;18.70;11.20;;;3.40;99.90;;;;;;4973851;28;20257;-81
2021/01/07 10:36:24;;;;;;;21.92;11.45;;;3.30;99.90;;;;;;4969291;28;20182;-82
2021/01/07 10:38:56;;;;;;;17.77;11.35;;;3.50;99.90;;;;;;4959144;28;20531;-81
2021/01/07 10:41:30;;;;;;;18.88;11.30;;;3.50;99.90;;;;;;4972569;28;20278;-81
2021/01/07 10:44:06;;;;;;;19.92;11.93;;;3.40;99.90;;;;;;4982363;28;20273;-83
2021/01/07 10:46:42;;;;;;;16.60;11.38;;;3.50;99.90;;;;;;4970872;28;20264;-82
2021/01/07 10:49:18;;;;;;;18.90;11.35;;;3.50;99.90;;;;;;4987056;28;20226;-82
2021/01/07 10:52:07;;;;;;;20.02;10.80;;;3.60;99.90;;;;;;4980955;28;20189;-82
2021/01/07 10:54:52;;;;;;;17.48;9.98;;;3.50;99.90;;;;;;4959363;28;20220;-81
2021/01/07 10:57:36;;;;;;;16.30;10.50;;;3.40;99.90;;;;;;4958129;28;20197;-81
2021/01/07 11:00:08;;;;;;;15.38;10.20;;;3.40;99.90;;;;;;4973996;28;20246;-81
2021/01/07 11:02:57;;;;;;;18.02;10.57;;;3.60;99.90;;;;;;4991163;28;20237;-88
2021/01/07 11:05:26;;;;;;;16.85;10.57;;;3.60;99.90;;;;;;4991821;28;20198;-86
2021/01/07 11:08:16;;;;;;;15.15;9.45;;;3.70;99.90;;;;;;4983905;28;20218;-88
2021/01/07 11:10:54;;;;;;;16.20;10.25;;;3.60;99.90;;;;;;4978138;28;20183;-87
2021/01/07 11:13:22;;;;;;;14.25;8.75;;;3.50;99.90;;;;;;4985019;28;20190;-86
2021/01/07 11:15:56;;;;;;;13.90;10.20;;;3.60;99.90;;;;;;4986702;28;20237;-86
2021/01/07 11:18:33;;;;;;;15.40;8.60;;;3.60;99.90;;;;;;4976912;28;20186;-86
2021/01/07 11:21:02;;;;;;;12.30;7.97;;;3.60;99.90;;;;;;4974520;28;20225;-87
2021/01/07 11:23:31;;;;;;;13.32;7.95;;;3.60;99.90;;;;;;4983076;28;20276;-86
2021/01/07 11:25:58;;;;;;;13.73;8.57;;;3.70;99.90;;;;;;4979515;28;20225;-88
2021/01/07 11:28:26;;;;;;;13.90;7.95;;;3.60;99.90;;;;;;4988200;28;20189;-87
2021/01/07 11:30:55;;;;;;;11.23;7.82;;;3.70;99.90;;;;;;4975622;28;20198;-86
2021/01/07 11:33:22;;;;;;;13.65;8.60;;;3.70;99.90;;;;;;4994532;28;20198;-87
2021/01/07 11:35:48;;;;;;;13.95;8.70;;;3.90;99.90;;;;;;4982047;28;20221;-86
2021/01/07 11:38:23;;;;;;;13.63;8.80;;;3.70;99.90;;;;;;4991151;28;20282;-86
2021/01/07 11:41:06;;;;;;;15.55;8.75;;;3.90;99.90;;;;;;4984483;28;20191;-87
2021/01/07 11:44:10;;;;;;;12.70;8.38;;;3.70;99.90;;;;;;4976252;28;20631;-86
2021/01/07 11:46:39;;;;;;;16.48;9.38;;;3.90;99.90;;;;;;4974108;28;20642;-86
2021/01/07 11:49:10;;;;;;;14.25;10.25;;;3.60;99.90;;;;;;4979481;28;20530;-86
2021/01/07 11:52:42;;;;;;;21.75;11.25;;;3.80;99.90;;;;;;4983747;28;20493;-91
2021/01/07 11:55:15;;;;;;;18.38;10.70;;;3.70;99.90;;;;;;4983495;28;20197;-91
2021/01/07 11:57:45;;;;;;;20.05;11.90;;;3.70;99.90;;;;;;4982917;28;20211;-89
2021/01/07 12:00:17;;;;;;;20.90;12.45;;;3.60;99.90;;;;;;4984401;28;20567;-82
2021/01/07 12:02:50;;;;;;;21.77;13.15;;;3.70;99.90;;;;;;4967564;28;20209;-83
2021/01/07 12:05:18;;;;;;;26.00;14.32;;;3.50;99.90;;;;;;4977211;28;20195;-84
2021/01/07 12:08:00;;;;;;;22.65;14.13;;;3.60;99.90;;;;;;4985657;28;20198;-83
2021/01/07 12:10:29;;;;;;;24.38;15.52;;;3.30;99.90;;;;;;4980980;28;20538;-84
2021/01/07 12:13:06;;;;;;;27.05;16.58;;;3.60;99.90;;;;;;4980812;28;20213;-83
2021/01/07 12:15:36;;;;;;;24.67;16.85;;;3.50;99.90;;;;;;4986352;28;20570;-82
2021/01/07 12:18:07;;;;;;;33.53;18.85;;;3.40;99.90;;;;;;4981169;28;20222;-91
2021/01/07 12:20:36;;;;;;;31.88;19.00;;;3.50;99.90;;;;;;4979763;28;20253;-91
2021/01/07 12:23:08;;;;;;;28.88;18.50;;;3.70;99.90;;;;;;4966821;28;20213;-89
2021/01/07 12:25:36;;;;;;;29.27;17.50;;;3.50;99.90;;;;;;4996351;28;20182;-86
2021/01/07 12:28:44;;;;;;;34.78;19.98;;;3.50;99.90;;;;;;4988565;28;20183;-89
2021/01/07 12:31:13;;;;;;;32.47;19.05;;;3.60;99.90;;;;;;4989499;28;20213;-85
2021/01/07 12:33:39;;;;;;;28.42;15.93;;;3.60;99.90;;;;;;4978227;28;20202;-87
2021/01/07 12:36:29;;;;;;;27.47;17.33;;;3.60;99.90;;;;;;4974051;28;20229;-90
2021/01/07 12:39:40;;;;;;;27.02;16.45;;;3.70;99.90;;;;;;4973849;28;20423;-87
2021/01/07 12:42:15;;;;;;;27.27;15.45;;;3.70;99.90;;;;;;4967511;28;20179;-85
2021/01/07 12:44:48;;;;;;;27.35;15.30;;;3.50;99.90;;;;;;4975821;28;20262;-87
2021/01/07 12:47:16;;;;;;;23.77;15.48;;;3.60;99.90;;;;;;4976616;28;20187;-88
2021/01/07 12:49:43;;;;;;;27.65;15.90;;;3.90;99.90;;;;;;4992175;28;20628;-84
2021/01/07 12:52:10;;;;;;;23.50;14.38;;;3.70;99.90;;;;;;4976043;28;20290;-83
2021/01/07 12:54:37;;;;;;;25.23;14.93;;;3.70;99.90;;;;;;4977108;28;20191;-84
2021/01/07 12:57:19;;;;;;;25.05;15.20;;;3.70;99.90;;;;;;4978885;28;20579;-84
2021/01/07 13:00:07;;;;;;;22.10;14.23;;;3.80;99.90;;;;;;4978516;28;20227;-83
2021/01/07 13:02:58;;;;;;;19.60;13.05;;;3.80;99.90;;;;;;4959337;28;20270;-84